Time;durP1;ratioP1;P1;durP2;ratioP2;P2;SDS_P1;SDS_P2;PMS_P1;PMS_P2;Temp;Humidity;BMP_temperature;BMP_pressure;BME280_temperature;BME280_humidity;BME280_pressure;Samples;Min_cycle;Max_cycle;Signal;HPM_P1;HPM_P2
2020/12/19 00:00:15;;;;;;;;;;;10.20;99.90;;;;;;5100302;28;20024;-68
2020/12/19 00:02:41;;;;;;;10.95;6.30;;;10.20;99.90;;;;;;5119746;28;20279;-68
2020/12/19 00:05:07;;;;;;;16.77;7.15;;;10.30;99.90;;;;;;5120170;28;20047;-68
2020/12/19 00:07:33;;;;;;;;;;;10.30;99.90;;;;;;5120649;28;20059;-68
2020/12/19 00:10:00;;;;;;;27.05;7.40;;;10.40;99.90;;;;;;5110906;28;20298;-68
2020/12/19 00:12:26;;;;;;;13.07;6.43;;;10.30;99.90;;;;;;5110379;28;20526;-68
2020/12/19 00:14:52;;;;;;;10.57;5.65;;;10.40;99.90;;;;;;5118179;28;20019;-68
2020/12/19 00:17:18;;;;;;;11.70;6.50;;;10.40;99.90;;;;;;5120456;28;21206;-68
2020/12/19 00:19:44;;;;;;;;;;;10.40;99.90;;;;;;5118101;28;20044;-68
2020/12/19 00:22:09;;;;;;;12.52;5.00;;;10.50;99.90;;;;;;5121412;27;19904;-68
2020/12/19 00:24:35;;;;;;;15.73;5.80;;;10.50;99.90;;;;;;5116446;28;20024;-68
2020/12/19 00:27:01;;;;;;;;;;;10.50;99.90;;;;;;5110779;28;20031;-68
2020/12/19 00:29:27;;;;;;;16.80;6.15;;;10.50;99.90;;;;;;5118043;28;19961;-68
2020/12/19 00:31:53;;;;;;;19.67;7.20;;;10.50;99.90;;;;;;5110179;28;20015;-68
2020/12/19 00:34:19;;;;;;;15.68;5.90;;;10.80;99.90;;;;;;5119269;28;20076;-68
2020/12/19 00:36:45;;;;;;;17.50;6.72;;;10.30;99.90;;;;;;5105708;28;20487;-68
2020/12/19 00:39:11;;;;;;;16.20;7.05;;;10.50;99.90;;;;;;5119173;28;20028;-68
2020/12/19 00:41:37;;;;;;;17.70;8.73;;;10.50;99.90;;;;;;5117487;28;20548;-68
2020/12/19 00:44:03;;;;;;;;;;;10.40;99.90;;;;;;5119256;28;20403;-68
2020/12/19 00:46:28;;;;;;;15.13;6.78;;;10.30;99.90;;;;;;5116723;28;19907;-68
2020/12/19 00:48:54;;;;;;;23.50;9.43;;;10.70;99.90;;;;;;5118927;28;20074;-68
2020/12/19 00:51:22;;;;;;;12.38;6.45;;;10.50;99.90;;;;;;5116725;28;20043;-68
2020/12/19 00:53:49;;;;;;;23.73;6.60;;;10.50;99.90;;;;;;5108972;28;20070;-68
2020/12/19 00:56:20;;;;;;;19.08;6.20;;;10.60;99.90;;;;;;5106452;28;20034;-68
2020/12/19 00:58:46;;;;;;;23.60;6.50;;;10.60;99.90;;;;;;5116750;28;20016;-68
2020/12/19 01:01:13;;;;;;;24.40;6.75;;;10.50;99.90;;;;;;5119030;28;20612;-68
2020/12/19 01:03:40;;;;;;;13.10;5.15;;;10.50;99.90;;;;;;5117456;28;20547;-68
2020/12/19 01:06:07;;;;;;;17.63;5.88;;;10.50;99.90;;;;;;5114378;28;20047;-68
2020/12/19 01:08:33;;;;;;;16.77;5.60;;;10.60;99.90;;;;;;5115502;28;20094;-68
2020/12/19 01:10:59;;;;;;;14.70;5.47;;;10.60;99.90;;;;;;5118337;28;20059;-68
2020/12/19 01:13:25;;;;;;;14.07;4.32;;;10.50;99.90;;;;;;5113867;28;20039;-68
2020/12/19 01:15:51;;;;;;;21.02;5.38;;;10.50;99.90;;;;;;5118898;28;20020;-68
2020/12/19 01:18:18;;;;;;;20.63;4.85;;;10.60;99.90;;;;;;5116929;28;20115;-68
2020/12/19 01:20:44;;;;;;;11.05;4.40;;;10.70;99.90;;;;;;5117500;28;20053;-68
2020/12/19 01:23:10;;;;;;;17.17;5.07;;;10.70;99.90;;;;;;5100263;27;20020;-68
2020/12/19 01:25:36;;;;;;;19.02;5.00;;;10.60;99.90;;;;;;5098133;28;20031;-68
2020/12/19 01:28:02;;;;;;;;;;;10.70;99.90;;;;;;5098944;28;20031;-68
2020/12/19 01:30:27;;;;;;;14.63;4.70;;;10.60;99.90;;;;;;5108294;28;19912;-68
2020/12/19 01:32:53;;;;;;;16.85;5.20;;;10.60;99.90;;;;;;5118535;28;20028;-68
2020/12/19 01:35:19;;;;;;;20.15;6.00;;;10.60;99.90;;;;;;5107966;28;20074;-68
2020/12/19 01:37:45;;;;;;;11.98;4.57;;;10.60;99.90;;;;;;5103492;28;20024;-68
2020/12/19 01:40:11;;;;;;;19.90;5.25;;;10.60;99.90;;;;;;5114574;28;20021;-68
2020/12/19 01:42:37;;;;;;;;;;;10.70;99.90;;;;;;5118354;28;20492;-68
2020/12/19 01:45:04;;;;;;;10.93;5.05;;;10.80;99.90;;;;;;5116094;28;19998;-68
2020/12/19 01:47:34;;;;;;;17.70;5.05;;;10.70;99.90;;;;;;5115247;28;20035;-68
2020/12/19 01:50:02;;;;;;;14.57;4.85;;;10.70;99.90;;;;;;5106810;28;20536;-68
2020/12/19 01:52:29;;;;;;;21.88;5.93;;;10.70;99.90;;;;;;5114059;28;20098;-68
2020/12/19 01:54:57;;;;;;;18.65;6.43;;;10.70;99.90;;;;;;5115488;28;20039;-68
2020/12/19 01:57:28;;;;;;;12.95;4.40;;;10.80;99.90;;;;;;5105516;28;20020;-68
2020/12/19 01:59:54;;;;;;;11.95;5.22;;;10.70;99.90;;;;;;5118098;28;20387;-68
2020/12/19 02:02:23;;;;;;;18.90;4.85;;;10.70;99.90;;;;;;5117736;28;20019;-68
2020/12/19 02:04:49;;;;;;;18.85;7.43;;;10.80;99.90;;;;;;5116328;28;20027;-68
2020/12/19 02:07:16;;;;;;;16.35;5.55;;;10.80;99.90;;;;;;5112117;28;20051;-68
2020/12/19 02:09:43;;;;;;;23.33;5.47;;;10.60;99.90;;;;;;5117680;28;20429;-68
2020/12/19 02:12:09;;;;;;;18.42;5.07;;;10.50;99.90;;;;;;5117877;28;20537;-68
2020/12/19 02:14:36;;;;;;;19.40;5.82;;;10.70;99.90;;;;;;5114641;28;20111;-68
2020/12/19 02:17:12;;;;;;;19.73;5.25;;;10.60;99.90;;;;;;5117893;28;20063;-68
2020/12/19 02:19:39;;;;;;;16.25;5.53;;;10.60;99.90;;;;;;5117512;28;20181;-68
2020/12/19 02:22:07;;;;;;;16.88;6.93;;;10.80;99.90;;;;;;5119774;28;20097;-68
2020/12/19 02:24:34;;;;;;;22.70;6.07;;;10.60;99.90;;;;;;5117291;28;20038;-68
2020/12/19 02:27:00;;;;;;;11.00;4.80;;;10.60;99.90;;;;;;5116074;28;20031;-68
2020/12/19 02:29:31;;;;;;;14.93;4.38;;;10.70;99.90;;;;;;5117400;28;20024;-68
2020/12/19 02:31:59;;;;;;;19.65;6.07;;;10.80;99.90;;;;;;5117926;28;20023;-68
2020/12/19 02:34:25;;;;;;;19.88;5.57;;;10.70;99.90;;;;;;5116460;28;20027;-68
2020/12/19 02:36:52;;;;;;;19.73;5.28;;;10.70;99.90;;;;;;5099523;28;21423;-68
2020/12/19 02:39:18;;;;;;;21.80;6.50;;;10.60;99.90;;;;;;5110297;28;20063;-68
2020/12/19 02:41:46;;;;;;;15.35;5.72;;;10.60;99.90;;;;;;5108987;28;20027;-68
2020/12/19 02:44:16;;;;;;;13.65;4.53;;;10.70;99.90;;;;;;5120308;28;20421;-68
2020/12/19 02:46:42;;;;;;;25.75;8.10;;;10.80;99.90;;;;;;5113651;28;20020;-68
2020/12/19 02:49:09;;;;;;;18.40;5.53;;;10.80;99.90;;;;;;5121479;28;20026;-68
2020/12/19 02:51:35;;;;;;;22.17;5.55;;;10.80;99.90;;;;;;5120529;28;20388;-68
2020/12/19 02:54:01;;;;;;;19.15;5.15;;;10.80;99.90;;;;;;5118969;28;20372;-68
2020/12/19 02:56:27;;;;;;;19.35;4.93;;;10.80;99.90;;;;;;5121146;28;20196;-68
2020/12/19 02:58:53;;;;;;;19.35;5.15;;;10.90;99.90;;;;;;5121328;28;20065;-68
2020/12/19 03:01:19;;;;;;;16.90;5.03;;;10.90;99.90;;;;;;5121196;28;20036;-68
2020/12/19 03:03:45;;;;;;;20.08;4.97;;;10.90;99.90;;;;;;5120950;28;21651;-68
2020/12/19 03:06:11;;;;;;;14.60;4.78;;;10.90;99.90;;;;;;5119376;28;20027;-68
2020/12/19 03:08:37;;;;;;;18.00;4.82;;;11.00;99.90;;;;;;5121180;28;20012;-68
2020/12/19 03:11:02;;;;;;;20.80;4.75;;;11.00;99.90;;;;;;5109040;28;20484;-68
2020/12/19 03:13:28;;;;;;;15.95;5.75;;;11.10;99.90;;;;;;5119719;28;20049;-68
2020/12/19 03:15:54;;;;;;;10.85;3.10;;;11.20;99.90;;;;;;5120036;28;20846;-68
2020/12/19 03:18:20;;;;;;;7.88;3.17;;;11.20;99.90;;;;;;5119578;28;20089;-68
2020/12/19 03:20:46;;;;;;;;;;;11.20;99.90;;;;;;5121559;27;20031;-68
2020/12/19 03:23:11;;;;;;;9.05;2.67;;;11.30;99.90;;;;;;5122297;27;20002;-68
2020/12/19 03:25:37;;;;;;;8.45;2.17;;;11.30;99.90;;;;;;5120545;28;20024;-68
2020/12/19 03:28:03;;;;;;;11.23;2.63;;;11.40;99.90;;;;;;5120806;28;20031;-68
2020/12/19 03:30:29;;;;;;;14.63;2.63;;;11.50;99.90;;;;;;5118647;28;20020;-68
2020/12/19 03:32:55;;;;;;;12.75;3.13;;;11.50;99.90;;;;;;5120516;28;20061;-68
2020/12/19 03:35:22;;;;;;;10.32;2.13;;;11.60;99.90;;;;;;5121093;27;20024;-68
2020/12/19 03:37:48;;;;;;;6.55;1.95;;;11.50;99.90;;;;;;5120514;28;20110;-68
2020/12/19 03:40:14;;;;;;;12.32;3.13;;;12.30;99.90;;;;;;5118150;28;20094;-68
2020/12/19 03:42:40;;;;;;;12.15;2.45;;;11.50;99.90;;;;;;5120457;28;20032;-68
2020/12/19 03:45:07;;;;;;;6.50;2.03;;;11.50;99.90;;;;;;5111718;28;20024;-68
2020/12/19 03:47:33;;;;;;;11.70;2.97;;;11.60;99.90;;;;;;5119343;28;20020;-68
2020/12/19 03:50:00;;;;;;;8.10;2.90;;;11.60;99.90;;;;;;5110204;28;20028;-68
2020/12/19 03:52:26;;;;;;;12.80;2.53;;;11.60;99.90;;;;;;5113926;28;20020;-68
2020/12/19 03:54:52;;;;;;;8.05;2.25;;;11.50;99.90;;;;;;5112153;28;20015;-68
2020/12/19 03:57:18;;;;;;;22.50;3.75;;;11.70;99.90;;;;;;5119563;28;20030;-68
2020/12/19 03:59:44;;;;;;;11.68;3.70;;;11.70;99.90;;;;;;5112579;28;20039;-68
2020/12/19 04:02:10;;;;;;;16.67;3.33;;;11.80;99.90;;;;;;5119783;28;20062;-68
2020/12/19 04:04:36;;;;;;;20.88;2.95;;;11.80;99.90;;;;;;5116483;28;20020;-68
2020/12/19 04:07:03;;;;;;;19.35;2.53;;;11.80;99.90;;;;;;5119632;28;20049;-68
2020/12/19 04:09:29;;;;;;;17.95;3.30;;;11.90;99.90;;;;;;5118069;28;20776;-68
2020/12/19 04:11:55;;;;;;;12.45;2.58;;;11.90;99.90;;;;;;5116841;28;20019;-68
2020/12/19 04:14:21;;;;;;;17.42;3.53;;;12.10;99.90;;;;;;5119751;28;20016;-68
2020/12/19 04:16:47;;;;;;;14.35;3.22;;;12.00;99.90;;;;;;5106468;28;20020;-68
2020/12/19 04:19:13;;;;;;;20.25;3.72;;;12.00;99.90;;;;;;5120051;28;20054;-68
2020/12/19 04:21:40;;;;;;;31.05;4.43;;;12.10;99.90;;;;;;5110877;27;20126;-68
2020/12/19 04:24:06;;;;;;;24.27;3.35;;;12.20;99.90;;;;;;5120104;28;20369;-68
2020/12/19 04:26:31;;;;;;;14.52;3.50;;;12.20;99.90;;;;;;5118390;28;20502;-68
2020/12/19 04:28:57;;;;;;;15.77;3.13;;;12.20;99.90;;;;;;5119867;28;20036;-68
2020/12/19 04:31:23;;;;;;;18.95;3.22;;;12.10;99.90;;;;;;5117187;28;20024;-68
2020/12/19 04:33:49;;;;;;;17.33;3.28;;;12.20;99.90;;;;;;5118626;28;20137;-68
2020/12/19 04:36:15;;;;;;;29.85;4.57;;;12.10;99.90;;;;;;5108038;28;20030;-68
2020/12/19 04:38:40;;;;;;;26.58;4.25;;;12.10;99.90;;;;;;5116269;28;20022;-68
2020/12/19 04:41:08;;;;;;;23.30;4.35;;;12.30;99.90;;;;;;5107923;27;20115;-68
2020/12/19 04:43:34;;;;;;;19.75;3.90;;;12.30;99.90;;;;;;5115313;28;20035;-68
2020/12/19 04:46:01;;;;;;;20.75;3.63;;;12.30;99.90;;;;;;5108200;28;20024;-68
2020/12/19 04:48:29;;;;;;;17.55;3.28;;;12.30;99.90;;;;;;5116409;28;20028;-68
2020/12/19 04:50:55;;;;;;;28.20;4.97;;;12.40;99.90;;;;;;5119093;28;20491;-68
2020/12/19 04:53:22;;;;;;;19.63;3.92;;;12.40;99.90;;;;;;5117243;28;20031;-69
2020/12/19 04:55:49;;;;;;;19.40;3.83;;;12.30;99.90;;;;;;5110313;28;20072;-68
2020/12/19 04:58:19;;;;;;;21.63;3.65;;;12.40;99.90;;;;;;5114937;28;20020;-68
2020/12/19 05:00:46;;;;;;;20.35;3.97;;;12.30;99.90;;;;;;5117169;28;20507;-69
2020/12/19 05:03:13;;;;;;;25.27;3.80;;;12.30;99.90;;;;;;5118829;28;20028;-68
2020/12/19 05:05:44;;;;;;;33.80;4.60;;;12.20;99.90;;;;;;5117156;28;20019;-69
2020/12/19 05:08:11;;;;;;;20.35;3.72;;;12.10;99.90;;;;;;5113314;28;20028;-68
2020/12/19 05:10:38;;;;;;;22.77;3.83;;;12.10;99.90;;;;;;5107391;28;20135;-69
2020/12/19 05:13:05;;;;;;;25.38;5.50;;;12.10;99.90;;;;;;5118376;28;20081;-69
2020/12/19 05:15:31;;;;;;;20.65;4.30;;;12.00;99.90;;;;;;5117957;28;20597;-69
2020/12/19 05:17:58;;;;;;;23.05;4.10;;;12.00;99.90;;;;;;5118472;28;20030;-69
2020/12/19 05:20:29;;;;;;;26.70;5.53;;;12.10;99.90;;;;;;5116949;28;20027;-68
2020/12/19 05:22:57;;;;;;;17.88;4.82;;;12.00;99.90;;;;;;5114779;27;20555;-68
2020/12/19 05:25:25;;;;;;;29.50;5.18;;;12.10;99.90;;;;;;5111532;28;20027;-68
2020/12/19 05:27:52;;;;;;;27.23;4.50;;;12.00;99.90;;;;;;5105776;28;20024;-68
2020/12/19 05:30:20;;;;;;;25.88;5.10;;;12.10;99.90;;;;;;5117809;28;20027;-69
2020/12/19 05:32:52;;;;;;;24.23;5.28;;;12.20;99.90;;;;;;5118231;28;20088;-69
2020/12/19 05:35:20;;;;;;;25.20;4.10;;;12.10;99.90;;;;;;5116408;28;20035;-68
2020/12/19 05:38:04;;;;;;;25.13;5.68;;;12.20;99.90;;;;;;5118341;28;20022;-68
2020/12/19 05:40:32;;;;;;;25.67;5.47;;;12.10;99.90;;;;;;5114492;28;20028;-68
2020/12/19 05:42:58;;;;;;;24.35;3.95;;;12.00;99.90;;;;;;5117753;28;20035;-68
2020/12/19 05:45:25;;;;;;;32.13;5.68;;;12.20;99.90;;;;;;5109177;28;20031;-69
2020/12/19 05:47:52;;;;;;;32.30;3.97;;;12.00;99.90;;;;;;5118158;28;20072;-68
2020/12/19 05:50:21;;;;;;;23.75;4.45;;;12.00;99.90;;;;;;5117441;28;20386;-68
2020/12/19 05:52:47;;;;;;;28.60;4.82;;;12.00;99.90;;;;;;5105336;28;20028;-68
2020/12/19 05:55:18;;;;;;;35.80;5.85;;;12.00;99.90;;;;;;5111417;28;20072;-68
2020/12/19 05:57:44;;;;;;;19.90;3.88;;;11.80;99.90;;;;;;5103939;28;20023;-68
2020/12/19 06:00:12;;;;;;;33.35;6.32;;;11.90;99.90;;;;;;5116023;28;20019;-68
2020/12/19 06:02:40;;;;;;;23.55;4.63;;;11.90;99.90;;;;;;5108410;27;20063;-68
2020/12/19 06:05:08;;;;;;;24.75;3.47;;;11.90;99.90;;;;;;5116531;28;20039;-68
2020/12/19 06:07:50;;;;;;;32.95;4.50;;;11.70;99.90;;;;;;5114553;28;20055;-68
2020/12/19 06:10:17;;;;;;;29.17;4.45;;;11.80;99.90;;;;;;5111797;28;20034;-68
2020/12/19 06:12:59;;;;;;;21.38;4.65;;;11.50;99.90;;;;;;5101464;28;20051;-68
2020/12/19 06:15:42;;;;;;;22.88;3.47;;;11.50;99.90;;;;;;5117377;28;20069;-68
2020/12/19 06:18:21;;;;;;;19.17;4.07;;;11.50;99.90;;;;;;5113646;28;20114;-68
2020/12/19 06:20:47;;;;;;;21.25;4.40;;;11.20;99.90;;;;;;5118381;27;20394;-68
2020/12/19 06:23:16;;;;;;;23.25;4.00;;;11.30;99.90;;;;;;5112615;28;20027;-68
2020/12/19 06:25:44;;;;;;;23.58;4.22;;;11.20;99.90;;;;;;5117089;28;20045;-68
2020/12/19 06:28:12;;;;;;;30.30;5.60;;;11.10;99.90;;;;;;5116037;28;20024;-68
2020/12/19 06:30:38;;;;;;;31.88;6.65;;;11.10;99.90;;;;;;5117416;28;20028;-68
2020/12/19 06:33:15;;;;;;;33.20;5.45;;;11.10;99.90;;;;;;5116270;28;20027;-68
2020/12/19 06:35:49;;;;;;;33.33;5.68;;;11.20;99.90;;;;;;5115928;28;20023;-70
2020/12/19 06:38:38;;;;;;;22.23;3.92;;;11.10;99.90;;;;;;5110037;28;20095;-68
2020/12/19 06:41:04;;;;;;;27.88;4.55;;;11.00;99.90;;;;;;5105196;28;20107;-68
2020/12/19 06:43:30;;;;;;;24.88;4.38;;;11.00;99.90;;;;;;5116755;28;20063;-68
2020/12/19 06:45:55;;;;;;;32.97;4.88;;;11.00;99.90;;;;;;5116718;28;20024;-68
2020/12/19 06:48:48;;;;;;;30.60;4.22;;;10.90;99.90;;;;;;5117259;28;20024;-68
2020/12/19 06:51:13;;;;;;;19.73;3.35;;;10.80;99.90;;;;;;5113000;28;20047;-68
2020/12/19 06:53:53;;;;;;;31.52;4.63;;;10.60;99.90;;;;;;5111879;28;20039;-68
2020/12/19 06:56:26;;;;;;;18.73;3.35;;;10.50;99.90;;;;;;5101202;28;20472;-68
2020/12/19 06:59:00;;;;;;;29.58;5.90;;;10.50;99.90;;;;;;5104444;28;20036;-68
2020/12/19 07:01:28;;;;;;;26.10;5.07;;;10.40;99.90;;;;;;5112336;28;20059;-68
2020/12/19 07:03:55;;;;;;;31.73;5.88;;;10.40;99.90;;;;;;5100659;28;20032;-68
2020/12/19 07:06:21;;;;;;;30.42;4.00;;;10.40;99.90;;;;;;5111589;28;20567;-68
2020/12/19 07:08:47;;;;;;;25.95;4.75;;;10.40;99.90;;;;;;5117156;28;20055;-68
2020/12/19 07:11:35;;;;;;;30.80;4.88;;;10.30;99.90;;;;;;5108751;28;20031;-68
2020/12/19 07:14:01;;;;;;;31.33;5.90;;;10.40;99.90;;;;;;5116879;28;20027;-68
2020/12/19 07:16:56;;;;;;;25.58;4.45;;;10.40;99.90;;;;;;5111843;28;20039;-68
2020/12/19 07:19:27;;;;;;;29.92;4.75;;;10.50;99.90;;;;;;5095803;28;20119;-68
2020/12/19 07:21:55;;;;;;;32.95;6.35;;;10.40;99.90;;;;;;5116862;28;20361;-68
2020/12/19 07:24:22;;;;;;;25.80;4.25;;;10.50;99.90;;;;;;5111558;28;20471;-68
2020/12/19 07:26:48;;;;;;;22.08;3.50;;;10.40;99.90;;;;;;5109529;28;20503;-68
2020/12/19 07:29:19;;;;;;;16.00;4.32;;;10.50;99.90;;;;;;5114656;28;20419;-68
2020/12/19 07:31:47;;;;;;;23.38;4.60;;;10.50;99.90;;;;;;5111208;28;20023;-68
2020/12/19 07:34:13;;;;;;;31.80;5.45;;;10.50;99.90;;;;;;5119925;28;20444;-68
2020/12/19 07:36:42;;;;;;;31.98;4.20;;;10.50;99.90;;;;;;5103433;28;20436;-68
2020/12/19 07:39:08;;;;;;;32.20;5.13;;;10.60;99.90;;;;;;5120430;28;20046;-68
2020/12/19 07:41:35;;;;;;;35.35;4.82;;;10.60;99.90;;;;;;5103529;28;20028;-68
2020/12/19 07:44:11;;;;;;;20.45;5.30;;;10.90;99.90;;;;;;5118816;28;20016;-68
2020/12/19 07:46:48;;;;;;;28.85;5.45;;;10.80;99.90;;;;;;5111044;28;20047;-68
2020/12/19 07:49:23;;;;;;;25.75;5.93;;;10.80;99.90;;;;;;5108465;28;20043;-68
2020/12/19 07:51:50;;;;;;;23.80;4.18;;;10.90;99.90;;;;;;5117688;28;20076;-68
2020/12/19 07:54:16;;;;;;;22.85;4.63;;;10.90;99.90;;;;;;5112351;28;20035;-68
2020/12/19 07:56:42;;;;;;;29.73;4.10;;;10.90;99.90;;;;;;5115796;28;20023;-68
2020/12/19 07:59:10;;;;;;;20.88;3.50;;;10.90;99.90;;;;;;5118061;28;20031;-68
2020/12/19 08:01:39;;;;;;;30.35;5.30;;;10.90;99.90;;;;;;5107118;28;20028;-68
2020/12/19 08:04:05;;;;;;;36.63;5.60;;;10.90;99.90;;;;;;5119977;28;20090;-68
2020/12/19 08:06:45;;;;;;;29.10;4.40;;;10.90;99.90;;;;;;5120250;28;20051;-68
2020/12/19 08:09:16;;;;;;;31.23;4.38;;;11.10;99.90;;;;;;5107002;28;20043;-68
2020/12/19 08:11:45;;;;;;;28.45;6.00;;;11.10;99.90;;;;;;5114271;28;20069;-68
2020/12/19 08:14:14;;;;;;;30.67;4.55;;;11.10;99.90;;;;;;5117940;28;20031;-68
2020/12/19 08:16:40;;;;;;;20.35;4.65;;;11.10;99.90;;;;;;5119905;27;20023;-68
2020/12/19 08:19:07;;;;;;;29.70;4.35;;;11.10;99.90;;;;;;5119514;28;20043;-68
2020/12/19 08:21:34;;;;;;;25.88;6.22;;;11.20;99.90;;;;;;5121944;27;20051;-68
2020/12/19 08:24:01;;;;;;;33.10;4.72;;;11.00;99.90;;;;;;5108434;28;20091;-68
2020/12/19 08:26:27;;;;;;;26.83;4.93;;;11.10;99.90;;;;;;5111970;27;20019;-68
2020/12/19 08:29:06;;;;;;;32.20;5.55;;;11.00;99.90;;;;;;5112958;28;20391;-68
2020/12/19 08:31:37;;;;;;;25.13;5.82;;;11.20;99.90;;;;;;5106448;28;20028;-68
2020/12/19 08:34:11;;;;;;;25.20;4.53;;;11.10;99.90;;;;;;5114224;28;20028;-69
2020/12/19 08:36:44;;;;;;;28.50;4.03;;;11.20;99.90;;;;;;5111503;28;20031;-68
2020/12/19 08:39:18;;;;;;;26.80;4.57;;;11.30;99.90;;;;;;5111451;28;20473;-68
2020/12/19 08:41:45;;;;;;;30.10;4.95;;;11.40;99.90;;;;;;5107498;28;20384;-68
2020/12/19 08:44:26;;;;;;;25.02;5.22;;;11.50;99.90;;;;;;5118873;27;20092;-68
2020/12/19 08:47:03;;;;;;;20.33;4.05;;;11.60;99.90;;;;;;5099816;28;20069;-68
2020/12/19 08:49:30;;;;;;;26.52;5.13;;;11.70;99.90;;;;;;5099053;28;20051;-68
2020/12/19 08:51:56;;;;;;;27.63;5.13;;;11.80;99.90;;;;;;5104859;28;20019;-68
2020/12/19 08:54:22;;;;;;;23.02;4.38;;;12.00;99.90;;;;;;5118149;28;20030;-69
2020/12/19 08:56:50;;;;;;;24.17;5.00;;;12.00;99.90;;;;;;5122247;27;20024;-68
2020/12/19 08:59:28;;;;;;;22.67;4.18;;;12.00;99.90;;;;;;5110849;28;20640;-68
2020/12/19 09:01:55;;;;;;;17.80;4.07;;;12.20;99.90;;;;;;5118637;28;20024;-68
2020/12/19 09:04:22;;;;;;;25.70;4.30;;;12.50;99.90;;;;;;5118028;28;20032;-68
2020/12/19 09:06:50;;;;;;;17.50;3.65;;;12.60;99.90;;;;;;5119427;28;20038;-68
2020/12/19 09:09:27;;;;;;;16.20;3.42;;;12.80;99.90;;;;;;5118882;28;20396;-68
2020/12/19 09:12:14;;;;;;;18.05;3.70;;;13.00;99.90;;;;;;5119054;28;20110;-68
2020/12/19 09:14:40;;;;;;;16.05;4.28;;;13.60;99.90;;;;;;5118679;28;20027;-68
2020/12/19 09:17:06;;;;;;;17.00;4.10;;;13.90;99.90;;;;;;5119400;28;20018;-68
2020/12/19 09:19:33;;;;;;;23.88;3.17;;;14.10;99.90;;;;;;5118643;28;20538;-68
2020/12/19 09:22:00;;;;;;;22.98;3.90;;;14.50;99.90;;;;;;5129967;27;20031;-68
2020/12/19 09:24:27;;;;;;;21.50;5.00;;;14.60;99.90;;;;;;5120444;27;20023;-68
2020/12/19 09:26:53;;;;;;;18.42;4.20;;;14.70;99.90;;;;;;5118682;28;20024;-68
2020/12/19 09:29:19;;;;;;;19.88;7.07;;;15.00;99.90;;;;;;5118410;28;20023;-68
2020/12/19 09:31:45;;;;;;;28.60;5.30;;;15.50;99.90;;;;;;5118734;28;20116;-68
2020/12/19 09:34:12;;;;;;;26.33;4.35;;;15.10;99.90;;;;;;5118492;28;20023;-68
2020/12/19 09:36:38;;;;;;;27.63;4.80;;;14.60;99.90;;;;;;5117298;28;20088;-68
2020/12/19 09:39:04;;;;;;;14.38;3.95;;;14.50;99.90;;;;;;5118381;28;20026;-68
2020/12/19 09:41:31;;;;;;;21.40;3.78;;;14.70;99.90;;;;;;5118282;28;20100;-68
2020/12/19 09:43:57;;;;;;;22.50;3.95;;;14.70;99.90;;;;;;5118165;28;20023;-68
2020/12/19 09:46:23;;;;;;;12.88;3.40;;;14.40;99.90;;;;;;5118512;28;20045;-68
2020/12/19 09:48:49;;;;;;;17.88;4.15;;;14.20;99.90;;;;;;5118294;28;20098;-68
2020/12/19 09:51:15;;;;;;;17.55;3.67;;;14.40;99.90;;;;;;5117186;28;20398;-68
2020/12/19 09:53:41;;;;;;;19.88;5.07;;;14.60;99.90;;;;;;5101691;28;20078;-60
2020/12/19 09:56:07;;;;;;;14.98;3.60;;;14.50;99.90;;;;;;5110166;28;20019;-61
2020/12/19 09:58:33;;;;;;;12.73;2.78;;;14.80;99.90;;;;;;5109284;28;20026;-68
2020/12/19 10:00:58;;;;;;;15.45;3.75;;;15.10;99.90;;;;;;5106703;27;20059;-68
2020/12/19 10:03:24;;;;;;;17.90;3.55;;;15.30;99.90;;;;;;5121651;27;20022;-68
2020/12/19 10:05:50;;;;;;;13.63;4.32;;;15.10;99.90;;;;;;5120094;27;20016;-68
2020/12/19 10:08:16;;;;;;;26.77;5.05;;;15.00;99.90;;;;;;5117914;28;20445;-68
2020/12/19 10:10:46;;;;;;;14.90;2.92;;;15.40;99.90;;;;;;5112221;28;20144;-68
2020/12/19 10:13:13;;;;;;;16.45;3.25;;;16.10;99.90;;;;;;5110079;28;20125;-68
2020/12/19 10:15:40;;;;;;;18.40;3.72;;;16.50;99.90;;;;;;5109072;27;20051;-68
2020/12/19 10:18:06;;;;;;;12.65;3.45;;;16.90;99.90;;;;;;5097971;27;20044;-68
2020/12/19 10:20:34;;;;;;;26.55;4.57;;;17.70;99.90;;;;;;5100564;28;20065;-68
2020/12/19 10:23:00;;;;;;;17.88;3.60;;;17.30;99.90;;;;;;5129446;27;20437;-68
2020/12/19 10:25:26;;;;;;;11.13;2.88;;;17.10;99.90;;;;;;5115649;28;20242;-68
2020/12/19 10:27:51;;;;;;;13.13;2.95;;;17.40;99.90;;;;;;5108931;28;20026;-68
2020/12/19 10:30:17;;;;;;;22.80;4.22;;;18.20;99.90;;;;;;5115513;28;20056;-68
2020/12/19 10:32:44;;;;;;;11.07;3.28;;;18.80;99.90;;;;;;5106682;28;20015;-68
2020/12/19 10:35:10;;;;;;;15.38;3.13;;;19.00;99.90;;;;;;5117633;28;20024;-68
2020/12/19 10:37:36;;;;;;;13.50;2.55;;;19.40;99.90;;;;;;5110659;28;20103;-68
2020/12/19 10:40:04;;;;;;;14.25;2.85;;;19.90;99.90;;;;;;5112099;28;20038;-68
2020/12/19 10:42:31;;;;;;;13.52;3.03;;;20.50;99.90;;;;;;5103257;28;20027;-68
2020/12/19 10:44:57;;;;;;;10.75;2.72;;;20.80;99.90;;;;;;5111668;28;20062;-68
2020/12/19 10:47:23;;;;;;;13.90;4.00;;;21.00;99.90;;;;;;5117776;28;20026;-69
2020/12/19 10:49:51;;;;;;;10.95;3.05;;;21.20;99.90;;;;;;5117468;28;20040;-68
2020/12/19 10:52:17;;;;;;;16.77;4.80;;;21.30;99.90;;;;;;5104682;28;20373;-68
2020/12/19 10:54:43;;;;;;;10.52;3.28;;;20.90;99.90;;;;;;5102897;28;20097;-68
2020/12/19 10:57:08;;;;;;;16.25;3.38;;;21.10;99.90;;;;;;5099178;28;20025;-69
2020/12/19 10:59:34;;;;;;;15.63;2.33;;;21.10;99.90;;;;;;5111597;28;20399;-69
2020/12/19 11:02:00;;;;;;;21.15;4.55;;;20.80;99.90;;;;;;5107580;28;20031;-69
2020/12/19 11:04:26;;;;;;;20.77;4.85;;;20.30;99.90;;;;;;5100804;28;20035;-68
2020/12/19 11:06:52;;;;;;;15.90;3.60;;;19.00;99.90;;;;;;5101214;28;20024;-69
2020/12/19 11:09:18;;;;;;;14.32;3.47;;;18.30;99.90;;;;;;5100832;28;20514;-68
2020/12/19 11:11:52;;;;;;;22.33;4.30;;;18.30;99.90;;;;;;5110808;28;20020;-68
2020/12/19 11:14:18;;;;;;;14.55;3.13;;;18.60;99.90;;;;;;5114312;28;20041;-68
2020/12/19 11:16:44;;;;;;;17.52;4.30;;;18.90;99.90;;;;;;5119846;28;20081;-68
2020/12/19 11:19:10;;;;;;;12.52;3.40;;;19.20;99.90;;;;;;5103818;28;20044;-68
2020/12/19 11:21:46;;;;;;;21.67;3.72;;;19.20;99.90;;;;;;5116248;27;20064;-68
2020/12/19 11:24:12;;;;;;;14.50;3.90;;;19.20;99.90;;;;;;5116540;27;20020;-68
2020/12/19 11:26:42;;;;;;;20.02;4.63;;;19.10;99.90;;;;;;5109639;28;20102;-68
2020/12/19 11:29:09;;;;;;;17.33;2.85;;;18.90;99.90;;;;;;5102861;28;20567;-68
2020/12/19 11:31:36;;;;;;;21.38;3.92;;;18.00;99.90;;;;;;5117465;28;20032;-68
2020/12/19 11:34:02;;;;;;;17.95;5.15;;;18.00;99.90;;;;;;5120982;28;20020;-68
2020/12/19 11:36:28;;;;;;;13.73;3.92;;;18.20;99.90;;;;;;5120800;27;20024;-68
2020/12/19 11:38:53;;;;;;;13.20;2.88;;;18.80;99.90;;;;;;5116405;28;20373;-68
2020/12/19 11:41:26;;;;;;;15.38;3.90;;;19.70;99.90;;;;;;5118863;28;20111;-68
2020/12/19 11:43:53;;;;;;;15.43;3.40;;;20.20;99.90;;;;;;5120754;28;20039;-68
2020/12/19 11:46:19;;;;;;;10.55;3.08;;;19.90;99.90;;;;;;5120638;28;20020;-68
2020/12/19 11:48:45;;;;;;;18.80;3.70;;;20.00;99.90;;;;;;5120492;28;20053;-68
2020/12/19 11:51:11;;;;;;;13.65;3.17;;;20.00;99.90;;;;;;5116989;28;20074;-68
2020/12/19 11:53:37;;;;;;;12.55;3.10;;;19.70;99.90;;;;;;5113915;27;20538;-68
2020/12/19 11:56:04;;;;;;;17.15;3.97;;;19.50;99.90;;;;;;5099861;28;20024;-68
2020/12/19 11:58:30;;;;;;;10.82;2.78;;;18.90;99.90;;;;;;5107378;28;20028;-68
2020/12/19 12:00:56;;;;;;;16.70;3.55;;;18.50;99.90;;;;;;5115990;28;20107;-68
2020/12/19 12:03:22;;;;;;;16.40;3.35;;;18.40;99.90;;;;;;5102215;28;20051;-68
2020/12/19 12:05:48;;;;;;;10.60;2.60;;;18.30;99.90;;;;;;5120288;28;20031;-68
2020/12/19 12:08:14;;;;;;;14.90;3.72;;;18.00;99.90;;;;;;5116490;27;20156;-68
2020/12/19 12:10:39;;;;;;;16.17;3.65;;;17.70;99.90;;;;;;5110696;28;20449;-68
2020/12/19 12:13:05;;;;;;;22.70;4.38;;;17.10;99.90;;;;;;5108943;28;20038;-68
2020/12/19 12:15:31;;;;;;;22.42;4.13;;;16.60;99.90;;;;;;5116485;28;20107;-69
2020/12/19 12:17:57;;;;;;;18.55;3.83;;;15.90;99.90;;;;;;5119877;28;20024;-68
2020/12/19 12:20:23;;;;;;;17.67;3.53;;;15.80;99.90;;;;;;5116604;28;20027;-68
2020/12/19 12:22:49;;;;;;;19.95;4.28;;;15.70;99.90;;;;;;5125858;27;20032;-71
2020/12/19 12:25:14;;;;;;;15.73;2.95;;;15.60;99.90;;;;;;5116836;28;20026;-71
2020/12/19 12:27:40;;;;;;;20.63;3.83;;;15.30;99.90;;;;;;5113194;28;20103;-68
2020/12/19 12:30:06;;;;;;;13.60;2.85;;;15.30;99.90;;;;;;5119662;28;20098;-68
2020/12/19 12:32:32;;;;;;;18.65;4.13;;;15.30;99.90;;;;;;5119899;28;20048;-68
2020/12/19 12:34:58;;;;;;;16.77;3.67;;;15.10;99.90;;;;;;5105900;28;20051;-68
2020/12/19 12:37:24;;;;;;;13.60;2.95;;;15.00;99.90;;;;;;5119776;28;20499;-68
2020/12/19 12:39:50;;;;;;;18.77;3.80;;;15.00;99.90;;;;;;5119384;28;20054;-68